Time;durP1;ratioP1;P1;durP2;ratioP2;P2;SDS_P1;SDS_P2;PMS_P1;PMS_P2;Temp;Humidity;BMP_temperature;BMP_pressure;BME280_temperature;BME280_humidity;BME280_pressure;Samples;Min_cycle;Max_cycle;Signal;HPM_P1;HPM_P2
2023/09/15 00:00:42;;;;;;;4.45;2.22;;;22.80;79.30;;;;;;5053705;28;20063;-63
2023/09/15 00:03:11;;;;;;;6.38;2.58;;;22.60;79.00;;;;;;5027387;28;20123;-66
2023/09/15 00:05:37;;;;;;;6.00;2.53;;;22.60;81.30;;;;;;5048529;28;20044;-62
2023/09/15 00:08:04;;;;;;;4.95;2.10;;;22.60;81.60;;;;;;5068028;28;20374;-62
2023/09/15 00:10:35;;;;;;;5.75;2.30;;;22.50;81.40;;;;;;5048860;28;20115;-66
2023/09/15 00:13:02;;;;;;;4.40;2.13;;;21.60;78.90;;;;;;5035640;28;20049;-66
2023/09/15 00:15:28;;;;;;;5.72;2.40;;;22.50;78.30;;;;;;5022176;28;20082;-62
2023/09/15 00:17:57;;;;;;;4.55;2.13;;;22.70;79.10;;;;;;5021636;28;20517;-62
2023/09/15 00:20:24;;;;;;;4.95;2.17;;;22.40;78.20;;;;;;5033931;28;20049;-63
2023/09/15 00:22:51;;;;;;;5.05;2.20;;;22.60;81.50;;;;;;5052521;28;20103;-62
2023/09/15 00:25:20;;;;;;;5.40;2.40;;;22.50;79.30;;;;;;5035348;28;20049;-62
2023/09/15 00:27:47;;;;;;;5.70;2.22;;;22.20;81.90;;;;;;5052933;28;20044;-62
2023/09/15 00:30:16;;;;;;;4.13;2.00;;;22.50;82.30;;;;;;5061780;28;20048;-66
2023/09/15 00:32:42;;;;;;;5.10;2.28;;;22.80;82.30;;;;;;5057827;28;20119;-67
2023/09/15 00:35:11;;;;;;;4.15;2.10;;;22.70;79.50;;;;;;5021967;28;20045;-62
2023/09/15 00:37:37;;;;;;;5.50;2.22;;;22.50;81.70;;;;;;5025838;28;20068;-62
2023/09/15 00:40:06;;;;;;;6.47;2.33;;;22.50;79.10;;;;;;5031431;28;20040;-62
2023/09/15 00:42:32;;;;;;;6.00;1.95;;;22.50;82.80;;;;;;5037460;28;20060;-62
2023/09/15 00:45:04;;;;;;;2.95;1.70;;;22.50;79.30;;;;;;5088827;28;20355;-63
2023/09/15 00:47:31;;;;;;;4.20;1.80;;;22.50;79.50;;;;;;5036810;28;20106;-67
2023/09/15 00:49:58;;;;;;;4.93;1.98;;;22.50;82.60;;;;;;5025546;28;20090;-67
2023/09/15 00:52:24;;;;;;;5.68;2.05;;;22.60;79.90;;;;;;5053385;28;20111;-67
2023/09/15 00:54:50;;;;;;;5.45;2.00;;;22.80;79.90;;;;;;5064949;28;20071;-67
2023/09/15 00:57:16;;;;;;;6.90;1.98;;;22.70;79.70;;;;;;5038068;28;20138;-67
2023/09/15 00:59:42;;;;;;;5.70;2.22;;;22.70;79.50;;;;;;5037205;28;20040;-66
2023/09/15 01:02:10;;;;;;;5.90;2.30;;;22.50;79.40;;;;;;5068021;28;20076;-67
2023/09/15 01:04:36;;;;;;;6.35;2.30;;;22.60;81.90;;;;;;5048933;28;20052;-66
2023/09/15 01:07:05;;;;;;;4.75;2.22;;;22.50;81.70;;;;;;5037765;28;20051;-62
2023/09/15 01:09:31;;;;;;;3.70;2.15;;;22.50;79.30;;;;;;5055260;28;20114;-62
2023/09/15 01:11:57;;;;;;;4.93;2.25;;;22.60;79.40;;;;;;5041780;28;20041;-62
2023/09/15 01:14:23;;;;;;;5.75;2.25;;;22.50;81.70;;;;;;5020756;28;20044;-67
2023/09/15 01:17:09;;;;;;;5.65;2.17;;;22.70;79.10;;;;;;5041133;28;20398;-67
2023/09/15 01:19:54;;;;;;;6.13;2.13;;;22.30;81.70;;;;;;5071719;28;20045;-66
2023/09/15 01:22:45;;;;;;;5.07;2.42;;;22.50;78.00;;;;;;5064909;28;20171;-66
2023/09/15 01:25:28;;;;;;;5.13;2.17;;;22.40;81.90;;;;;;5083603;28;20048;-66
2023/09/15 01:28:14;;;;;;;4.72;2.28;;;22.30;81.40;;;;;;5039053;28;20055;-67
2023/09/15 01:30:43;;;;;;;4.63;1.90;;;22.30;79.60;;;;;;5057279;28;20052;-63
2023/09/15 01:33:13;;;;;;;6.00;2.22;;;22.10;77.90;;;;;;5049903;28;20056;-62
2023/09/15 01:35:39;;;;;;;4.32;2.20;;;22.40;82.40;;;;;;5067342;28;20045;-66
2023/09/15 01:38:06;;;;;;;5.28;2.15;;;22.60;79.60;;;;;;5052053;28;20063;-65
2023/09/15 01:40:32;;;;;;;5.05;2.15;;;;;;;;;;5030715;28;20041;-62
2023/09/15 01:42:58;;;;;;;5.10;2.10;;;22.50;77.50;;;;;;5040933;28;20052;-63
2023/09/15 01:45:23;;;;;;;4.68;2.00;;;22.40;79.10;;;;;;5034697;28;20063;-62
2023/09/15 01:47:49;;;;;;;4.97;2.13;;;22.40;79.20;;;;;;5079857;28;20055;-63
2023/09/15 01:50:15;;;;;;;4.80;2.45;;;22.30;81.70;;;;;;5066435;28;20048;-62
2023/09/15 01:52:42;;;;;;;5.05;1.95;;;22.20;81.70;;;;;;5037561;28;20072;-62
2023/09/15 01:55:08;;;;;;;4.38;2.22;;;22.30;82.70;;;;;;5085157;28;20048;-62
2023/09/15 01:57:34;;;;;;;4.90;2.03;;;;;;;;;;5070674;28;20390;-63
2023/09/15 02:00:00;;;;;;;5.03;2.40;;;22.20;81.70;;;;;;5057238;28;20386;-62
2023/09/15 02:02:26;;;;;;;7.47;2.03;;;22.30;79.30;;;;;;5028698;28;20049;-62
2023/09/15 02:04:51;;;;;;;4.35;1.95;;;22.20;82.80;;;;;;5064681;28;20382;-63
2023/09/15 02:07:17;;;;;;;5.00;2.30;;;22.10;79.10;;;;;;5052957;28;20067;-63
2023/09/15 02:09:44;;;;;;;6.10;2.05;;;22.20;82.20;;;;;;5036139;28;20131;-66
2023/09/15 02:12:21;;;;;;;5.85;2.25;;;22.10;82.30;;;;;;5050890;28;20044;-67
2023/09/15 02:14:50;;;;;;;4.10;2.00;;;22.60;78.50;;;;;;5012697;28;20044;-66
2023/09/15 02:17:26;;;;;;;6.00;2.00;;;22.20;81.80;;;;;;5004230;28;20056;-66
2023/09/15 02:19:53;;;;;;;5.53;2.13;;;22.10;81.60;;;;;;5023053;28;20036;-66
2023/09/15 02:22:22;;;;;;;7.22;2.28;;;22.20;81.90;;;;;;5039987;28;20387;-66
2023/09/15 02:24:49;;;;;;;5.25;2.00;;;;;;;;;;5027796;28;20053;-65
2023/09/15 02:27:15;;;;;;;6.35;2.50;;;22.10;82.70;;;;;;5066535;28;20137;-65
2023/09/15 02:29:45;;;;;;;4.05;2.10;;;22.20;81.70;;;;;;5037346;28;20048;-65
2023/09/15 02:32:11;;;;;;;5.25;2.05;;;22.20;81.70;;;;;;5063342;28;20059;-66
2023/09/15 02:34:38;;;;;;;3.58;1.73;;;22.10;81.80;;;;;;5041119;28;20049;-65
2023/09/15 02:37:24;;;;;;;5.53;1.85;;;22.10;82.00;;;;;;5021512;28;20087;-64
2023/09/15 02:39:50;;;;;;;3.97;1.90;;;22.10;81.60;;;;;;5065219;28;20036;-63
2023/09/15 02:42:16;;;;;;;4.05;1.88;;;22.30;79.60;;;;;;5052182;28;20121;-65
2023/09/15 02:44:43;;;;;;;6.18;2.15;;;22.30;82.30;;;;;;5070125;28;20056;-65
2023/09/15 02:47:10;;;;;;;3.50;1.98;;;;;;;;;;5045239;28;20501;-64
2023/09/15 02:49:36;;;;;;;4.43;2.10;;;;;;;;;;5038725;28;20053;-66
2023/09/15 02:52:06;;;;;;;4.85;2.20;;;22.90;78.10;;;;;;5040010;28;20095;-66
2023/09/15 02:54:33;;;;;;;5.38;2.13;;;;;;;;;;5034902;28;20077;-66
2023/09/15 02:57:02;;;;;;;4.38;2.22;;;;;;;;;;5055122;28;20131;-65
2023/09/15 02:59:34;;;;;;;5.68;1.92;;;22.20;80.30;;;;;;5056907;28;20041;-65
2023/09/15 03:02:01;;;;;;;4.32;2.05;;;22.00;81.80;;;;;;5056809;28;20099;-66
2023/09/15 03:04:27;;;;;;;4.53;1.98;;;22.00;82.20;;;;;;5051144;28;20044;-65
2023/09/15 03:06:54;;;;;;;6.18;2.40;;;22.40;78.60;;;;;;5048100;28;20037;-65
2023/09/15 03:09:22;;;;;;;4.72;2.10;;;22.10;79.50;;;;;;5040047;28;20041;-65
2023/09/15 03:11:50;;;;;;;5.50;2.20;;;22.00;82.90;;;;;;5024557;28;20055;-65
2023/09/15 03:14:18;;;;;;;4.68;1.73;;;;;;;;;;5040267;28;20181;-64
2023/09/15 03:16:47;;;;;;;3.60;1.80;;;22.00;82.60;;;;;;5069474;28;20411;-67
2023/09/15 03:19:14;;;;;;;4.75;1.95;;;22.10;82.00;;;;;;5028553;28;20498;-65
2023/09/15 03:21:41;;;;;;;3.85;2.08;;;22.00;82.00;;;;;;5051623;28;20121;-65
2023/09/15 03:24:11;;;;;;;4.13;2.00;;;22.00;80.00;;;;;;5045186;28;20186;-65
2023/09/15 03:26:39;;;;;;;4.22;2.22;;;22.10;82.20;;;;;;5017023;28;20048;-64
2023/09/15 03:29:05;;;;;;;5.47;2.03;;;22.20;82.00;;;;;;5014253;28;20062;-65
2023/09/15 03:31:34;;;;;;;6.28;2.10;;;22.10;81.90;;;;;;5048097;28;20044;-65
2023/09/15 03:34:01;;;;;;;4.05;2.00;;;;;;;;;;5039515;28;20036;-65
2023/09/15 03:36:31;;;;;;;5.80;2.72;;;22.00;82.50;;;;;;5055731;28;20052;-66
2023/09/15 03:38:58;;;;;;;4.68;2.00;;;21.90;79.00;;;;;;5070958;28;20052;-64
2023/09/15 03:41:28;;;;;;;4.70;2.10;;;;;;;;;;5034672;28;20111;-67
2023/09/15 03:43:59;;;;;;;4.15;2.10;;;;;;;;;;5069536;28;20140;-66
2023/09/15 03:46:29;;;;;;;4.60;2.03;;;22.00;82.00;;;;;;5048588;28;20087;-64
2023/09/15 03:48:59;;;;;;;4.70;1.92;;;22.00;78.30;;;;;;5048234;28;20076;-65
2023/09/15 03:51:29;;;;;;;5.00;2.10;;;;;;;;;;5035639;28;20128;-62
2023/09/15 03:53:55;;;;;;;5.03;2.28;;;21.80;77.60;;;;;;5063854;28;20054;-62
2023/09/15 03:56:21;;;;;;;5.50;2.20;;;21.90;79.40;;;;;;5055244;28;20040;-62
2023/09/15 03:58:48;;;;;;;3.97;2.03;;;22.00;82.00;;;;;;5030210;28;20131;-62
2023/09/15 04:01:19;;;;;;;5.20;2.05;;;22.10;79.70;;;;;;5072988;28;20508;-62
2023/09/15 04:03:46;;;;;;;3.85;2.17;;;22.00;82.10;;;;;;5052224;28;20048;-62
2023/09/15 04:06:12;;;;;;;4.85;2.30;;;22.00;82.00;;;;;;5038586;28;20113;-63
2023/09/15 04:08:38;;;;;;;4.80;2.20;;;22.00;79.60;;;;;;5069182;28;20045;-66
2023/09/15 04:11:04;;;;;;;6.15;2.40;;;22.10;82.50;;;;;;5065211;28;20044;-68
2023/09/15 04:13:30;;;;;;;4.10;2.17;;;21.90;82.70;;;;;;5071401;28;20052;-62
2023/09/15 04:15:56;;;;;;;5.07;2.30;;;22.00;79.70;;;;;;5030234;28;20037;-66
2023/09/15 04:18:23;;;;;;;4.72;2.25;;;;;;;;;;5041790;28;20056;-62
2023/09/15 04:20:53;;;;;;;4.78;2.30;;;22.00;82.60;;;;;;5056232;28;20695;-62
2023/09/15 04:23:19;;;;;;;3.92;2.10;;;22.00;82.40;;;;;;5058112;28;20105;-66
2023/09/15 04:25:45;;;;;;;7.05;2.40;;;21.90;82.60;;;;;;5052768;28;20068;-66
2023/09/15 04:28:12;;;;;;;7.72;2.55;;;22.00;82.10;;;;;;5042736;28;20482;-62
2023/09/15 04:30:38;;;;;;;6.53;2.30;;;21.90;79.70;;;;;;5068273;28;20049;-62
2023/09/15 04:33:04;;;;;;;4.65;2.10;;;;;;;;;;5057549;28;20041;-64
2023/09/15 04:35:31;;;;;;;4.55;2.40;;;21.80;82.60;;;;;;5019011;28;20055;-63
2023/09/15 04:37:58;;;;;;;4.78;2.20;;;21.90;82.10;;;;;;5057331;28;20079;-62
2023/09/15 04:40:24;;;;;;;4.22;2.17;;;21.90;82.10;;;;;;5027602;28;20043;-62
2023/09/15 04:42:50;;;;;;;5.93;2.17;;;22.10;82.70;;;;;;5075161;28;20132;-62
2023/09/15 04:45:16;;;;;;;6.45;2.38;;;21.90;79.50;;;;;;5064560;28;20044;-62
2023/09/15 04:47:42;;;;;;;4.93;2.70;;;22.00;82.30;;;;;;5051384;28;20045;-62
2023/09/15 04:50:08;;;;;;;4.30;2.30;;;21.90;79.80;;;;;;5064671;28;20106;-62
2023/09/15 04:52:34;;;;;;;4.20;2.30;;;21.90;82.30;;;;;;5043270;28;20102;-62
2023/09/15 04:55:00;;;;;;;5.68;2.60;;;;;;;;;;5053361;28;20041;-62
2023/09/15 04:57:26;;;;;;;4.85;2.30;;;21.70;82.40;;;;;;5019709;28;20425;-62
2023/09/15 04:59:55;;;;;;;4.50;2.35;;;21.80;82.10;;;;;;5026196;28;20083;-66
2023/09/15 05:02:24;;;;;;;4.07;2.28;;;21.80;82.10;;;;;;5034219;28;20131;-67
2023/09/15 05:04:52;;;;;;;3.97;2.22;;;21.80;82.10;;;;;;5017099;28;20094;-66
2023/09/15 05:07:19;;;;;;;4.25;2.22;;;21.60;82.30;;;;;;5069835;28;20497;-64
2023/09/15 05:09:45;;;;;;;4.10;2.00;;;;;;;;;;5045196;28;20048;-62
2023/09/15 05:12:13;;;;;;;5.55;2.50;;;21.90;82.20;;;;;;5056579;28;20052;-62
2023/09/15 05:14:39;;;;;;;3.78;2.15;;;21.90;82.30;;;;;;5043616;28;20071;-62
2023/09/15 05:17:05;;;;;;;4.45;2.40;;;21.70;79.90;;;;;;5051803;28;20052;-62
2023/09/15 05:19:31;;;;;;;5.80;2.53;;;21.70;82.20;;;;;;5021342;28;20040;-62
2023/09/15 05:21:57;;;;;;;4.43;2.50;;;21.80;79.50;;;;;;5016123;28;20103;-62
2023/09/15 05:24:24;;;;;;;5.72;2.88;;;21.90;80.50;;;;;;5035682;28;20066;-62
2023/09/15 05:26:50;;;;;;;4.22;2.72;;;21.70;79.60;;;;;;5051013;28;20052;-62
2023/09/15 05:29:16;;;;;;;4.65;2.45;;;21.80;79.40;;;;;;5065646;28;20040;-62
2023/09/15 05:31:41;;;;;;;4.15;2.40;;;21.80;82.20;;;;;;5051194;28;20033;-62
2023/09/15 05:34:08;;;;;;;4.95;2.10;;;21.80;82.40;;;;;;5035664;28;20102;-62
2023/09/15 05:36:34;;;;;;;5.57;2.47;;;21.90;83.00;;;;;;5007322;28;20072;-62
2023/09/15 05:39:00;;;;;;;4.60;2.20;;;22.10;82.00;;;;;;5049785;28;20090;-62
2023/09/15 05:41:26;;;;;;;4.80;2.40;;;22.10;81.80;;;;;;5035177;28;20502;-62
2023/09/15 05:43:52;;;;;;;5.78;2.65;;;22.00;79.10;;;;;;5067623;28;20134;-62
2023/09/15 05:46:18;;;;;;;4.18;2.35;;;22.00;79.00;;;;;;5061401;28;20049;-62
2023/09/15 05:48:44;;;;;;;6.03;2.40;;;22.10;82.30;;;;;;5018088;28;20118;-62
2023/09/15 05:51:09;;;;;;;4.97;2.20;;;22.10;81.60;;;;;;5003362;28;20413;-62
2023/09/15 05:53:35;;;;;;;4.43;2.30;;;22.00;79.50;;;;;;5054447;28;20478;-61
2023/09/15 05:56:02;;;;;;;5.47;2.00;;;22.30;81.50;;;;;;5041309;28;20059;-62
2023/09/15 05:58:27;;;;;;;5.90;2.30;;;22.20;81.40;;;;;;5090848;28;20052;-63
2023/09/15 06:00:55;;;;;;;4.45;2.20;;;22.30;81.50;;;;;;5057388;28;20490;-63
2023/09/15 06:03:22;;;;;;;6.32;2.53;;;22.30;82.10;;;;;;5030856;28;20045;-62
2023/09/15 06:05:48;;;;;;;5.57;2.28;;;22.20;81.30;;;;;;5054322;28;20343;-62
2023/09/15 06:08:14;;;;;;;4.50;2.60;;;22.20;78.90;;;;;;5035595;28;20520;-62
2023/09/15 06:10:41;;;;;;;5.05;2.63;;;22.20;81.20;;;;;;5039218;28;20052;-65
2023/09/15 06:13:07;;;;;;;4.05;2.50;;;22.30;78.90;;;;;;5026435;28;20144;-62
2023/09/15 06:15:36;;;;;;;6.35;2.38;;;22.20;81.30;;;;;;5054289;28;20049;-62
2023/09/15 06:18:02;;;;;;;3.38;2.10;;;22.10;81.30;;;;;;5039645;28;20091;-62
2023/09/15 06:20:33;;;;;;;5.28;2.55;;;;;;;;;;5071462;28;20450;-65
2023/09/15 06:23:03;;;;;;;4.60;2.70;;;22.20;80.90;;;;;;5045017;28;20380;-64
2023/09/15 06:25:31;;;;;;;4.30;2.55;;;22.30;78.20;;;;;;5052704;28;20049;-63
2023/09/15 06:27:59;;;;;;;4.63;2.67;;;22.40;80.60;;;;;;5039175;28;20492;-64
2023/09/15 06:30:30;;;;;;;4.97;2.63;;;22.80;81.20;;;;;;5057648;28;20040;-64
2023/09/15 06:32:59;;;;;;;5.35;2.50;;;22.70;80.60;;;;;;5054388;28;20127;-65
2023/09/15 06:35:25;;;;;;;5.68;2.30;;;22.80;78.00;;;;;;5044024;28;20061;-63
2023/09/15 06:37:53;;;;;;;5.63;2.45;;;;;;;;;;5024604;28;20044;-63
2023/09/15 06:40:22;;;;;;;5.35;2.50;;;23.10;77.40;;;;;;5050150;28;20064;-65
2023/09/15 06:42:49;;;;;;;4.93;2.35;;;23.00;78.00;;;;;;5021504;28;20041;-65
2023/09/15 06:45:16;;;;;;;4.38;2.22;;;23.40;77.80;;;;;;5047262;28;20143;-61
2023/09/15 06:47:42;;;;;;;4.45;2.00;;;23.50;77.50;;;;;;5061945;28;20080;-61
2023/09/15 06:50:08;;;;;;;3.63;2.05;;;23.70;77.40;;;;;;5071066;28;20446;-61
2023/09/15 06:52:34;;;;;;;4.35;2.20;;;23.70;77.10;;;;;;5034100;28;20048;-61
2023/09/15 06:55:00;;;;;;;3.22;1.90;;;23.70;76.90;;;;;;5055271;28;20120;-62
2023/09/15 06:57:25;;;;;;;3.35;2.08;;;23.80;76.90;;;;;;5020907;28;20045;-61
2023/09/15 06:59:52;;;;;;;3.53;1.73;;;24.00;76.70;;;;;;5022042;28;20158;-61
2023/09/15 07:02:17;;;;;;;3.60;2.03;;;24.20;76.30;;;;;;5025677;28;20139;-60
2023/09/15 07:04:43;;;;;;;5.53;2.20;;;24.10;76.50;;;;;;5054602;28;20410;-61
2023/09/15 07:07:10;;;;;;;6.45;2.65;;;24.30;76.30;;;;;;5036915;28;20044;-64
2023/09/15 07:09:36;;;;;;;8.27;3.75;;;24.40;75.70;;;;;;5065422;28;20068;-62
2023/09/15 07:12:02;;;;;;;6.45;3.38;;;24.30;74.90;;;;;;5066798;28;20065;-61
2023/09/15 07:14:27;;;;;;;7.65;3.00;;;24.10;76.60;;;;;;5080444;28;20348;-61
2023/09/15 07:16:53;;;;;;;8.55;4.00;;;24.20;74.20;;;;;;5056866;28;20114;-61
2023/09/15 07:19:19;;;;;;;6.10;3.28;;;24.10;73.80;;;;;;5088373;28;20044;-61
2023/09/15 07:21:45;;;;;;;9.10;4.40;;;24.10;73.80;;;;;;5062556;28;20506;-63
2023/09/15 07:24:11;;;;;;;7.30;3.63;;;24.10;73.60;;;;;;5072456;28;20448;-61
2023/09/15 07:26:37;;;;;;;6.35;3.28;;;24.10;73.70;;;;;;5038160;28;20110;-61
2023/09/15 07:29:06;;;;;;;5.53;3.42;;;24.00;76.30;;;;;;5033556;28;20078;-69
2023/09/15 07:31:34;;;;;;;6.50;3.83;;;24.10;73.70;;;;;;5042913;28;20071;-68
2023/09/15 07:33:59;;;;;;;10.65;4.13;;;24.00;75.50;;;;;;5067260;28;20036;-61
2023/09/15 07:36:25;;;;;;;7.57;4.22;;;23.80;73.20;;;;;;5057728;28;20047;-60
2023/09/15 07:38:52;;;;;;;7.57;4.00;;;24.00;73.30;;;;;;5057667;28;20091;-61
2023/09/15 07:41:18;;;;;;;7.55;3.90;;;24.00;73.40;;;;;;5058888;28;20118;-62
2023/09/15 07:43:44;;;;;;;8.65;4.50;;;23.80;73.10;;;;;;5070126;28;20092;-62
2023/09/15 07:46:10;;;;;;;5.55;3.35;;;23.90;72.80;;;;;;5070484;28;20051;-64
2023/09/15 07:48:36;;;;;;;7.88;4.07;;;24.00;73.30;;;;;;5072541;28;20044;-61
2023/09/15 07:51:03;;;;;;;6.95;3.63;;;23.80;73.30;;;;;;5058514;28;20431;-61
2023/09/15 07:53:29;;;;;;;9.10;3.30;;;23.80;75.80;;;;;;5061701;28;20044;-62
2023/09/15 07:55:55;;;;;;;11.25;3.38;;;23.70;73.10;;;;;;5054340;28;20458;-68
2023/09/15 07:58:22;;;;;;;6.25;3.58;;;24.00;73.90;;;;;;5059613;28;20068;-66
2023/09/15 08:00:50;;;;;;;7.80;3.80;;;24.00;72.60;;;;;;5054339;28;20033;-65
2023/09/15 08:03:16;;;;;;;7.35;3.53;;;24.00;73.20;;;;;;5054018;28;20037;-62
2023/09/15 08:05:42;;;;;;;7.72;3.97;;;23.80;72.80;;;;;;5068433;28;20052;-61
2023/09/15 08:08:08;;;;;;;6.53;3.78;;;24.10;72.50;;;;;;5052681;28;20044;-61
2023/09/15 08:10:34;;;;;;;7.63;3.67;;;24.00;73.00;;;;;;5053678;28;20037;-62
2023/09/15 08:13:00;;;;;;;7.22;3.60;;;24.20;73.00;;;;;;5064408;28;20513;-61
2023/09/15 08:15:26;;;;;;;7.72;3.40;;;24.00;76.00;;;;;;5038557;28;20044;-63
2023/09/15 08:17:52;;;;;;;7.45;3.72;;;24.10;72.80;;;;;;5067269;28;20131;-61
2023/09/15 08:20:18;;;;;;;8.23;3.95;;;24.30;73.20;;;;;;5053743;28;20474;-61
2023/09/15 08:22:44;;;;;;;5.95;3.08;;;24.30;73.00;;;;;;5071533;28;20139;-61
2023/09/15 08:25:14;;;;;;;7.13;3.70;;;24.30;73.00;;;;;;5076691;28;20041;-68
2023/09/15 08:27:44;;;;;;;8.52;3.95;;;24.30;72.70;;;;;;5051394;28;20045;-67
2023/09/15 08:30:12;;;;;;;8.70;3.50;;;24.20;72.30;;;;;;5053841;28;20103;-68
2023/09/15 08:32:41;;;;;;;9.02;3.33;;;24.30;73.00;;;;;;5055515;28;20045;-69
2023/09/15 08:35:10;;;;;;;6.82;3.40;;;24.20;72.60;;;;;;5062595;28;20037;-69
2023/09/15 08:37:37;;;;;;;7.22;3.22;;;24.50;73.90;;;;;;5069319;28;20044;-68
2023/09/15 08:40:05;;;;;;;7.00;3.88;;;24.40;72.80;;;;;;5055419;28;20053;-62
2023/09/15 08:42:34;;;;;;;5.65;2.97;;;24.20;72.60;;;;;;5069900;28;20037;-68
2023/09/15 08:45:05;;;;;;;6.03;3.22;;;24.20;71.70;;;;;;5041320;28;20045;-68
2023/09/15 08:47:34;;;;;;;7.93;3.58;;;25.10;73.40;;;;;;5068634;28;20098;-64
2023/09/15 08:50:03;;;;;;;7.85;3.35;;;24.40;73.20;;;;;;5046561;28;20106;-61
2023/09/15 08:52:30;;;;;;;11.63;4.82;;;24.30;72.80;;;;;;5024465;28;20051;-62
2023/09/15 08:54:56;;;;;;;14.13;4.43;;;24.30;73.20;;;;;;5036940;28;20057;-69
2023/09/15 08:57:23;;;;;;;13.88;3.85;;;26.60;74.30;;;;;;5072397;28;20051;-68
2023/09/15 08:59:51;;;;;;;13.10;3.97;;;24.60;73.20;;;;;;5071202;28;20044;-68
2023/09/15 09:02:19;;;;;;;6.70;3.28;;;24.40;73.20;;;;;;5027940;28;20526;-68
2023/09/15 09:04:46;;;;;;;11.95;3.58;;;24.90;72.40;;;;;;5035276;28;20037;-68
2023/09/15 09:07:13;;;;;;;10.88;3.05;;;24.20;73.50;;;;;;4996265;28;20045;-68
2023/09/15 09:09:42;;;;;;;8.68;3.63;;;24.60;73.50;;;;;;5070571;28;20041;-68
2023/09/15 09:12:09;;;;;;;8.40;3.60;;;24.10;73.50;;;;;;5070114;28;20048;-65
2023/09/15 09:14:36;;;;;;;9.90;4.15;;;24.20;72.60;;;;;;5019208;28;20094;-69
2023/09/15 09:17:03;;;;;;;10.80;3.70;;;24.00;73.20;;;;;;5054736;28;20486;-69
2023/09/15 09:19:39;;;;;;;9.52;3.83;;;24.40;73.40;;;;;;5034532;28;20053;-67
2023/09/15 09:22:11;;;;;;;8.27;3.03;;;24.00;76.80;;;;;;5035552;28;20111;-67
2023/09/15 09:24:46;;;;;;;6.60;3.13;;;24.40;74.00;;;;;;5033611;28;20049;-67
2023/09/15 09:27:12;;;;;;;7.20;3.97;;;23.60;73.60;;;;;;5017733;28;20049;-68
2023/09/15 09:29:38;;;;;;;8.35;3.53;;;24.10;73.90;;;;;;5054629;28;20133;-60
2023/09/15 09:32:05;;;;;;;7.78;3.40;;;24.00;73.60;;;;;;5068459;28;20371;-62
2023/09/15 09:34:30;;;;;;;6.85;3.10;;;24.30;74.30;;;;;;5067644;28;20071;-60
2023/09/15 09:36:56;;;;;;;7.15;3.22;;;23.90;74.10;;;;;;5067719;28;20045;-61
2023/09/15 09:39:22;;;;;;;8.38;3.50;;;23.70;73.60;;;;;;5045658;28;20406;-62
2023/09/15 09:41:48;;;;;;;8.68;3.58;;;23.80;73.80;;;;;;5072047;28;20044;-61
2023/09/15 09:44:14;;;;;;;9.60;3.83;;;23.70;73.90;;;;;;5034801;28;20111;-69
2023/09/15 09:46:40;;;;;;;5.53;2.65;;;23.60;73.60;;;;;;5034381;28;20158;-69
2023/09/15 09:49:06;;;;;;;8.15;3.35;;;24.00;74.20;;;;;;5059455;28;20036;-69
2023/09/15 09:51:33;;;;;;;8.57;3.63;;;24.00;74.60;;;;;;5051761;28;20439;-67
2023/09/15 09:53:59;;;;;;;7.60;3.47;;;23.80;74.60;;;;;;5051993;28;20048;-67
2023/09/15 09:56:25;;;;;;;12.15;4.68;;;23.80;74.60;;;;;;5050681;28;20140;-68
2023/09/15 09:58:51;;;;;;;9.93;4.22;;;23.80;74.50;;;;;;5050744;28;20049;-67
2023/09/15 10:01:17;;;;;;;8.10;3.80;;;23.60;74.30;;;;;;5063457;28;20406;-68
2023/09/15 10:03:42;;;;;;;9.18;4.00;;;23.90;74.50;;;;;;5071390;28;20215;-68
2023/09/15 10:06:09;;;;;;;6.45;3.53;;;23.70;74.80;;;;;;5036089;28;20070;-68
2023/09/15 10:08:39;;;;;;;8.15;4.20;;;22.10;72.60;;;;;;5020720;28;20119;-68
2023/09/15 10:11:05;;;;;;;7.22;4.00;;;24.00;74.90;;;;;;5039163;28;20048;-68
2023/09/15 10:13:31;;;;;;;8.48;4.50;;;23.90;74.50;;;;;;5068705;28;20178;-67
2023/09/15 10:15:57;;;;;;;12.20;5.05;;;23.70;74.30;;;;;;5059979;28;20076;-68
2023/09/15 10:18:23;;;;;;;11.90;4.78;;;24.00;73.80;;;;;;5068649;28;20130;-67
2023/09/15 10:20:51;;;;;;;8.10;3.30;;;23.80;73.80;;;;;;5048840;28;20052;-64
2023/09/15 10:23:18;;;;;;;7.45;4.00;;;23.80;74.20;;;;;;5052020;28;20045;-68
2023/09/15 10:25:54;;;;;;;9.10;4.57;;;23.90;73.70;;;;;;5001822;28;20037;-69
2023/09/15 10:28:26;;;;;;;7.65;3.70;;;23.80;73.70;;;;;;5034898;28;20045;-68
2023/09/15 10:30:55;;;;;;;8.50;3.80;;;24.10;75.00;;;;;;5034224;28;20069;-66
2023/09/15 10:33:28;;;;;;;9.02;3.55;;;23.90;74.20;;;;;;5035010;28;20036;-67
2023/09/15 10:36:01;;;;;;;;;;;23.80;73.90;;;;;;5058336;28;20072;-70
2023/09/15 10:38:30;;;;;;;21.20;4.47;;;23.80;72.10;;;;;;5054711;28;20397;-67
2023/09/15 10:41:03;;;;;;;12.98;3.97;;;23.90;73.10;;;;;;5043235;28;20060;-68
2023/09/15 10:43:29;;;;;;;8.48;3.72;;;23.90;76.60;;;;;;5025322;28;20040;-67
2023/09/15 10:45:57;;;;;;;10.50;3.72;;;24.40;73.70;;;;;;5068971;28;20540;-69
2023/09/15 10:48:46;;;;;;;8.68;3.55;;;24.20;73.90;;;;;;5037269;28;20055;-69
2023/09/15 10:51:13;;;;;;;9.40;3.08;;;23.90;76.30;;;;;;5042358;28;20044;-68
2023/09/15 10:53:49;;;;;;;7.85;3.33;;;23.90;73.40;;;;;;5037451;28;20055;-67
2023/09/15 10:56:17;;;;;;;8.25;3.05;;;22.50;71.10;;;;;;5062735;28;20056;-68
2023/09/15 10:58:44;;;;;;;6.72;3.10;;;24.20;73.30;;;;;;5090145;28;20040;-68
2023/09/15 11:01:10;;;;;;;10.02;3.55;;;24.40;73.60;;;;;;5053272;28;20053;-68
2023/09/15 11:03:39;;;;;;;9.23;3.80;;;24.20;73.40;;;;;;5057176;28;20101;-68
2023/09/15 11:06:10;;;;;;;7.45;3.65;;;24.40;73.70;;;;;;5050824;28;20043;-67
2023/09/15 11:08:36;;;;;;;7.82;3.75;;;24.10;73.40;;;;;;5041776;28;20076;-68
2023/09/15 11:11:04;;;;;;;7.00;3.40;;;24.50;73.30;;;;;;5072439;28;20486;-68
2023/09/15 11:13:31;;;;;;;8.07;3.67;;;24.10;73.40;;;;;;5074982;28;20059;-68
2023/09/15 11:15:57;;;;;;;7.63;3.15;;;24.40;73.30;;;;;;5053930;28;20048;-69
2023/09/15 11:18:23;;;;;;;7.97;3.03;;;24.30;73.20;;;;;;5053285;28;20095;-68
2023/09/15 11:20:49;;;;;;;7.63;3.40;;;24.60;73.20;;;;;;5077666;28;20037;-67
2023/09/15 11:23:18;;;;;;;8.13;3.25;;;24.40;73.50;;;;;;5069896;28;20102;-68
2023/09/15 11:25:47;;;;;;;8.82;3.28;;;24.40;73.40;;;;;;5047454;28;20044;-68
2023/09/15 11:28:16;;;;;;;6.90;3.10;;;24.20;73.40;;;;;;5054775;28;20536;-68
2023/09/15 11:30:42;;;;;;;4.65;2.53;;;24.40;73.50;;;;;;5054607;28;20048;-67
2023/09/15 11:33:08;;;;;;;6.45;2.97;;;24.40;73.10;;;;;;5054360;28;20037;-68
2023/09/15 11:35:35;;;;;;;6.22;3.13;;;24.40;73.30;;;;;;5018715;28;20087;-68
2023/09/15 11:38:04;;;;;;;8.90;3.15;;;24.50;72.90;;;;;;5050730;28;20086;-67
2023/09/15 11:40:30;;;;;;;18.90;4.30;;;24.50;73.40;;;;;;5034277;28;20450;-67
2023/09/15 11:43:02;;;;;;;12.63;3.55;;;24.80;72.80;;;;;;5047264;28;20048;-66
2023/09/15 11:45:28;;;;;;;8.10;3.55;;;24.70;72.60;;;;;;5052164;28;20140;-67
2023/09/15 11:47:55;;;;;;;8.65;3.38;;;24.70;73.10;;;;;;5048146;28;20048;-67
2023/09/15 11:50:22;;;;;;;8.43;3.17;;;25.10;73.00;;;;;;5018993;28;20087;-66
2023/09/15 11:52:47;;;;;;;7.22;2.95;;;24.70;72.90;;;;;;5028887;28;20045;-66
2023/09/15 11:55:20;;;;;;;9.30;2.97;;;23.70;72.10;;;;;;5036896;28;20067;-66
2023/09/15 11:57:47;;;;;;;7.03;2.90;;;24.80;73.20;;;;;;5045146;28;20059;-66
2023/09/15 12:00:16;;;;;;;7.63;3.35;;;24.90;73.00;;;;;;5054658;28;20084;-67
2023/09/15 12:02:46;;;;;;;7.20;3.00;;;24.70;73.20;;;;;;5052122;28;20099;-66
2023/09/15 12:05:16;;;;;;;8.50;3.15;;;24.90;73.20;;;;;;5019614;28;20107;-67
2023/09/15 12:07:45;;;;;;;9.20;3.17;;;25.00;71.60;;;;;;5056867;28;20455;-66
2023/09/15 12:10:18;;;;;;;7.97;3.17;;;24.90;72.80;;;;;;5073385;28;20055;-67
2023/09/15 12:12:45;;;;;;;8.15;3.55;;;24.90;73.50;;;;;;5088880;28;20047;-66
2023/09/15 12:15:15;;;;;;;7.00;3.00;;;24.90;73.10;;;;;;5030369;28;20054;-67
2023/09/15 12:17:42;;;;;;;7.90;3.00;;;24.60;72.90;;;;;;5053307;28;20399;-66
2023/09/15 12:20:09;;;;;;;9.32;3.28;;;25.10;73.40;;;;;;5033813;28;20418;-66
2023/09/15 12:22:40;;;;;;;6.85;3.75;;;24.90;72.90;;;;;;5064494;28;20048;-66
2023/09/15 12:25:10;;;;;;;31.33;4.80;;;25.00;73.40;;;;;;5053586;28;20079;-67
2023/09/15 12:27:39;;;;;;;14.50;4.10;;;25.30;73.50;;;;;;5055289;28;20318;-66
2023/09/15 12:30:05;;;;;;;17.40;3.60;;;25.10;73.30;;;;;;5055996;28;20041;-66
2023/09/15 12:32:33;;;;;;;14.88;3.65;;;25.30;73.20;;;;;;5073608;28;20041;-65
2023/09/15 12:34:59;;;;;;;8.60;3.47;;;25.10;73.50;;;;;;5073427;28;20401;-66
2023/09/15 12:37:26;;;;;;;10.32;3.78;;;25.10;73.00;;;;;;5065082;28;20055;-67
2023/09/15 12:39:52;;;;;;;9.60;3.22;;;25.10;73.70;;;;;;5055667;28;20556;-67
2023/09/15 12:42:18;;;;;;;11.35;3.97;;;25.20;73.40;;;;;;5072859;28;20375;-67
2023/09/15 12:44:45;;;;;;;9.20;3.65;;;25.10;73.50;;;;;;5055405;28;20095;-67
2023/09/15 12:47:11;;;;;;;10.18;4.43;;;25.10;73.60;;;;;;5053234;28;20037;-67
2023/09/15 12:49:38;;;;;;;9.80;3.95;;;24.90;73.30;;;;;;5069795;28;20053;-68
2023/09/15 12:52:04;;;;;;;8.70;4.40;;;25.20;73.90;;;;;;5053202;28;20116;-67
2023/09/15 12:54:31;;;;;;;10.05;4.10;;;25.20;73.60;;;;;;5070917;28;20379;-67